createdAt,value
2019-03-04T00:00:49.148Z,99550.59
2019-03-04T00:03:21.471Z,99553.11
2019-03-04T00:05:52.117Z,99548.45
2019-03-04T00:08:23.772Z,99553.33
2019-03-04T00:10:55.302Z,99545.47
2019-03-04T00:13:26.462Z,99546.73
2019-03-04T00:15:59.072Z,99541.18
2019-03-04T00:18:30.189Z,99542.09
2019-03-04T00:21:01.798Z,99544.16
2019-03-04T00:23:32.718Z,99543.05
2019-03-04T00:26:03.904Z,99541.64
2019-03-04T00:28:34.789Z,99534.83
2019-03-04T00:31:05.909Z,99529.31
2019-03-04T00:33:37.058Z,99528.44
2019-03-04T00:36:08.045Z,99514.50
2019-03-04T00:38:38.748Z,99518.81
2019-03-04T00:41:10.048Z,99519.77
2019-03-04T00:43:40.825Z,99514.67
2019-03-04T00:46:12.000Z,99499.98
2019-03-04T00:48:42.918Z,99506.17
2019-03-04T00:51:13.834Z,99491.95
2019-03-04T00:53:45.144Z,99485.02
2019-03-04T00:56:16.236Z,99490.78
2019-03-04T00:58:47.312Z,99486.01
2019-03-04T01:01:19.598Z,99477.33
2019-03-04T01:03:51.187Z,99476.06
2019-03-04T01:06:22.316Z,99476.13
2019-03-04T01:08:53.405Z,99481.89
2019-03-04T01:11:24.960Z,99476.75
2019-03-04T01:13:57.412Z,99483.71
2019-03-04T01:16:29.069Z,99479.48
2019-03-04T01:19:00.073Z,99477.84
2019-03-04T01:21:31.062Z,99468.31
2019-03-04T01:24:02.236Z,99471.41
2019-03-04T01:26:33.784Z,99464.09
2019-03-04T01:29:05.719Z,99456.29
2019-03-04T01:31:36.763Z,99455.34
2019-03-04T01:34:08.190Z,99455.45
2019-03-04T01:36:38.948Z,99448.91
2019-03-04T01:39:10.996Z,99450.25
2019-03-04T01:41:43.260Z,99446.34
2019-03-04T01:44:14.385Z,99444.30
2019-03-04T01:46:45.428Z,99446.44
2019-03-04T01:49:17.348Z,99444.72
2019-03-04T01:51:48.950Z,99435.07
2019-03-04T01:54:20.163Z,99440.37
2019-03-04T01:56:51.200Z,99430.81
2019-03-04T01:59:22.654Z,99440.72
2019-03-04T02:01:53.883Z,99445.50
2019-03-04T02:04:25.797Z,99446.44
2019-03-04T02:06:56.711Z,99444.30
2019-03-04T02:09:28.366Z,99440.79
2019-03-04T02:11:59.960Z,99433.02
2019-03-04T02:14:30.997Z,99437.80
2019-03-04T02:17:03.379Z,99432.23
2019-03-04T02:19:35.321Z,99431.36
2019-03-04T02:22:06.211Z,99425.77
2019-03-04T02:24:38.369Z,99425.86
2019-03-04T02:27:09.471Z,99418.81
2019-03-04T02:29:42.129Z,99408.94
2019-03-04T02:32:13.771Z,99409.72
2019-03-04T02:34:44.840Z,99401.58
2019-03-04T02:37:16.128Z,99389.13
2019-03-04T02:39:47.432Z,99380.00
2019-03-04T02:42:18.840Z,99367.00
2019-03-04T02:44:50.332Z,99392.22
2019-03-04T02:47:21.693Z,99377.06
2019-03-04T02:49:52.988Z,99362.85
2019-03-04T02:52:23.701Z,99348.55
2019-03-04T02:54:54.695Z,99355.81
2019-03-04T02:57:25.642Z,99370.47
2019-03-04T02:59:57.341Z,99363.13
2019-03-04T03:02:28.926Z,99349.24
2019-03-04T03:05:00.648Z,99333.64
2019-03-04T03:07:32.765Z,99321.94
2019-03-04T03:10:05.021Z,99333.61
2019-03-04T03:12:35.897Z,99333.13
2019-03-04T03:15:09.601Z,99342.72
2019-03-04T03:17:40.701Z,99341.86
2019-03-04T03:20:13.951Z,99354.84
2019-03-04T03:22:45.635Z,99344.83
2019-03-04T03:25:16.941Z,99340.38
2019-03-04T03:27:47.430Z,99340.87
2019-03-04T03:30:20.718Z,99341.32
2019-03-04T03:32:52.073Z,99345.58
2019-03-04T03:35:23.399Z,99336.88
2019-03-04T03:37:54.469Z,99342.44
2019-03-04T03:40:25.189Z,99336.27
2019-03-04T03:42:56.420Z,99340.95
2019-03-04T03:45:28.241Z,99348.30
2019-03-04T03:47:59.291Z,99342.22
2019-03-04T03:50:30.558Z,99335.56
2019-03-04T03:53:01.777Z,99333.91
2019-03-04T03:55:33.001Z,99326.44
2019-03-04T03:58:04.297Z,99323.68
2019-03-04T04:00:35.123Z,99318.45
2019-03-04T04:03:06.390Z,99310.23
2019-03-04T04:05:37.835Z,99318.00
2019-03-04T04:08:08.845Z,99323.53
2019-03-04T04:10:39.894Z,99328.75
2019-03-04T04:13:10.703Z,99339.58
2019-03-04T04:15:41.954Z,99346.01
2019-03-04T04:18:13.231Z,99344.64
2019-03-04T04:20:48.562Z,99343.73
2019-03-04T04:23:21.173Z,99336.42
2019-03-04T04:25:52.597Z,99339.48
2019-03-04T04:28:23.819Z,99340.26
2019-03-04T04:30:54.690Z,99335.55
2019-03-04T04:33:26.029Z,99328.23
2019-03-04T04:35:57.036Z,99320.50
2019-03-04T04:38:27.851Z,99330.15
2019-03-04T04:40:59.039Z,99316.38
2019-03-04T04:43:30.202Z,99304.70
2019-03-04T04:46:01.079Z,99293.00
2019-03-04T04:48:32.288Z,99293.49
2019-03-04T04:51:03.095Z,99299.92
2019-03-04T04:53:34.531Z,99303.05
2019-03-04T04:56:05.759Z,99300.53
2019-03-04T04:58:36.636Z,99283.73
2019-03-04T05:01:07.671Z,99284.69
2019-03-04T05:03:38.952Z,99279.67
2019-03-04T05:06:13.018Z,99274.95
2019-03-04T05:08:43.346Z,99273.73
2019-03-04T05:11:14.378Z,99263.25
2019-03-04T05:13:48.417Z,99255.06
2019-03-04T05:16:19.399Z,99245.63
2019-03-04T05:18:50.306Z,99244.86
2019-03-04T05:21:21.672Z,99231.31
2019-03-04T05:23:55.932Z,99230.30
2019-03-04T05:26:31.975Z,99215.06
2019-03-04T05:29:11.722Z,99213.28
2019-03-04T05:37:47.424Z,99211.75
2019-03-04T05:40:29.104Z,99216.50
2019-03-04T05:43:01.457Z,99216.59
2019-03-04T05:45:32.319Z,99220.94
2019-03-04T05:48:04.068Z,99216.16
2019-03-04T05:50:35.620Z,99208.81
2019-03-04T05:53:07.008Z,99198.75
2019-03-04T05:55:38.961Z,99191.02
2019-03-04T05:58:10.369Z,99193.27
2019-03-04T06:00:43.345Z,99187.22
2019-03-04T06:03:18.070Z,99188.52
2019-03-04T06:05:49.526Z,99175.10
2019-03-04T06:08:21.289Z,99185.92
2019-03-04T06:10:52.842Z,99180.78
2019-03-04T06:13:24.510Z,99175.10
2019-03-04T06:15:55.806Z,99170.91
2019-03-04T06:18:27.718Z,99160.54
2019-03-04T06:20:59.032Z,99161.05
2019-03-04T06:23:30.497Z,99155.42
2019-03-04T06:26:02.596Z,99151.50
2019-03-04T06:28:34.352Z,99137.11
2019-03-04T06:31:05.377Z,99131.83
2019-03-04T06:33:37.145Z,99151.70
2019-03-04T06:36:08.746Z,99133.98
2019-03-04T06:38:39.421Z,99130.90
2019-03-04T06:41:10.567Z,99129.20
2019-03-04T06:43:41.329Z,99132.26
2019-03-04T06:46:12.145Z,99123.23
2019-03-04T06:48:42.928Z,99113.34
2019-03-04T06:51:16.781Z,99110.75
2019-03-04T06:53:50.187Z,99114.24
2019-03-04T06:56:24.415Z,99107.88
2019-03-04T06:58:56.882Z,99104.45
2019-03-04T07:01:30.977Z,99095.48
2019-03-04T07:04:05.350Z,99097.75
2019-03-04T07:06:36.494Z,99088.88
2019-03-04T07:09:08.699Z,99076.05
2019-03-04T07:11:40.013Z,99072.44
2019-03-04T07:14:11.412Z,99070.92
2019-03-04T07:16:43.042Z,99068.46
2019-03-04T07:19:15.859Z,99061.55
2019-03-04T07:21:47.453Z,99068.91
2019-03-04T07:24:18.934Z,99063.34
2019-03-04T07:26:50.500Z,99065.74
2019-03-04T07:29:21.733Z,99059.34
2019-03-04T07:31:53.667Z,99063.42
2019-03-04T07:34:26.274Z,99048.37
2019-03-04T07:36:57.628Z,99038.92
2019-03-04T07:39:28.866Z,99045.61
2019-03-04T07:42:00.508Z,99054.05
2019-03-04T07:44:33.360Z,99046.82
2019-03-04T07:47:04.299Z,99049.18
2019-03-04T07:49:36.451Z,99040.61
2019-03-04T07:52:08.229Z,99038.98
2019-03-04T07:54:39.373Z,99030.47
2019-03-04T07:57:11.819Z,99028.86
2019-03-04T07:59:43.012Z,99029.53
2019-03-04T08:02:15.574Z,99020.55
2019-03-04T08:04:46.869Z,99016.70
2019-03-04T08:07:22.291Z,99016.70
2019-03-04T08:12:38.291Z,99009.36
2019-03-04T08:15:10.412Z,99009.42
2019-03-04T08:17:42.131Z,99004.25
2019-03-04T08:20:14.428Z,98997.34
2019-03-04T08:22:46.879Z,99004.73
2019-03-04T08:25:19.026Z,98994.24
2019-03-04T08:27:50.071Z,98983.34
2019-03-04T08:30:23.381Z,98988.16
2019-03-04T08:32:54.672Z,98985.89
2019-03-04T08:35:26.703Z,98982.41
2019-03-04T08:37:58.336Z,98968.94
2019-03-04T08:40:29.298Z,98969.38
2019-03-04T08:43:00.243Z,98961.16
2019-03-04T08:45:33.210Z,98960.78
2019-03-04T08:48:05.684Z,98957.73
2019-03-04T08:50:38.901Z,98949.57
2019-03-04T08:53:10.410Z,98930.09
2019-03-04T08:55:42.490Z,98919.82
2019-03-04T08:58:13.649Z,98916.47
2019-03-04T09:00:44.370Z,98916.59
2019-03-04T09:03:15.249Z,98900.69
2019-03-04T09:05:48.010Z,98893.95
2019-03-04T09:08:20.169Z,98891.13
2019-03-04T09:10:52.368Z,98897.38
2019-03-04T09:13:23.657Z,98900.87
2019-03-04T09:15:55.207Z,98887.36
2019-03-04T09:18:26.802Z,98882.19
2019-03-04T09:20:57.718Z,98884.89
2019-03-04T09:23:29.104Z,98875.35
2019-03-04T09:26:03.604Z,98872.33
2019-03-04T09:28:36.109Z,98858.09
2019-03-04T09:31:08.563Z,98852.51
2019-03-04T09:33:39.728Z,98842.06
2019-03-04T09:36:12.328Z,98848.18
2019-03-04T09:38:45.001Z,98849.90
2019-03-04T09:41:17.584Z,98840.27
2019-03-04T09:43:50.394Z,98839.83
2019-03-04T09:46:23.334Z,98839.40
2019-03-04T09:48:56.066Z,98846.83
2019-03-04T09:51:28.345Z,98833.33
2019-03-04T09:54:00.944Z,98829.86
2019-03-04T09:56:31.963Z,98829.89
2019-03-04T09:59:05.008Z,98814.68
2019-03-04T10:01:40.634Z,98787.21
2019-03-04T10:04:13.301Z,98784.19
2019-03-04T10:06:48.526Z,98777.22
2019-03-04T10:09:22.822Z,98771.56
2019-03-04T10:11:55.265Z,98773.28
2019-03-04T10:14:29.898Z,98775.48
2019-03-04T10:17:04.314Z,98764.59
2019-03-04T10:19:38.693Z,98766.79
2019-03-04T10:22:12.894Z,98765.90
2019-03-04T10:24:47.388Z,98761.98
2019-03-04T10:27:21.467Z,98763.75
2019-03-04T10:29:55.759Z,98767.70
2019-03-04T10:32:29.845Z,98770.33
2019-03-04T10:35:07.433Z,98766.87
2019-03-04T10:37:42.623Z,98754.63
2019-03-04T10:40:16.675Z,98748.52
2019-03-04T10:42:51.172Z,98743.31
2019-03-04T10:45:26.214Z,98736.30
2019-03-04T10:47:57.477Z,98730.20
2019-03-04T10:50:28.763Z,98726.72
2019-03-04T10:52:59.949Z,98722.78
2019-03-04T10:55:41.216Z,98721.46
2019-03-04T10:58:04.027Z,98726.27
2019-03-04T11:00:36.955Z,98734.12
2019-03-04T11:03:07.876Z,98720.15
2019-03-04T11:05:39.231Z,98718.39
2019-03-04T11:08:11.159Z,98708.80
2019-03-04T11:10:42.244Z,98703.13
2019-03-04T11:13:13.525Z,98707.50
2019-03-04T11:15:44.551Z,98714.89
2019-03-04T11:18:26.651Z,98705.70
2019-03-04T11:20:57.929Z,98708.77
2019-03-04T11:23:30.634Z,98705.70
2019-03-04T11:26:01.734Z,98711.81
2019-03-04T11:28:33.044Z,98703.07
2019-03-04T11:31:04.545Z,98703.09
2019-03-04T11:33:36.030Z,98703.09
2019-03-04T11:36:09.558Z,98696.06
2019-03-04T11:38:43.455Z,98682.09
2019-03-04T11:41:17.451Z,98683.84
2019-03-04T11:43:49.819Z,98674.23
2019-03-04T11:46:22.553Z,98666.77
2019-03-04T11:48:53.705Z,98665.91
2019-03-04T11:51:26.711Z,98653.67
2019-03-04T11:53:57.577Z,98646.66
2019-03-04T11:56:28.877Z,98636.16
2019-03-04T11:59:00.166Z,98640.02
2019-03-04T12:01:32.979Z,98628.61
2019-03-04T12:04:04.324Z,98622.89
2019-03-04T12:06:36.070Z,98610.13
2019-03-04T12:09:10.581Z,98603.95
2019-03-04T12:11:43.062Z,98606.50
2019-03-04T12:14:15.469Z,98605.04
2019-03-04T12:16:46.548Z,98590.91
2019-03-04T12:19:17.590Z,98579.50
2019-03-04T12:21:48.629Z,98568.19
2019-03-04T12:24:19.758Z,98545.02
2019-03-04T12:26:51.018Z,98537.63
2019-03-04T12:29:21.999Z,98542.47
2019-03-04T12:31:54.549Z,98535.93
2019-03-04T12:34:25.717Z,98523.72
2019-03-04T12:36:57.310Z,98504.44
2019-03-04T12:39:28.069Z,98502.31
2019-03-04T12:41:58.950Z,98506.72
2019-03-04T12:44:32.984Z,98494.06
2019-03-04T12:47:04.871Z,98491.45
2019-03-04T12:49:36.230Z,98493.64
2019-03-04T12:52:07.451Z,98486.21
2019-03-04T12:54:38.428Z,98488.84
2019-03-04T12:57:10.150Z,98476.63
2019-03-04T12:59:41.269Z,98474.40
2019-03-04T13:02:14.910Z,98468.28
2019-03-04T13:04:46.469Z,98465.20
2019-03-04T13:07:19.548Z,98468.33
2019-03-04T13:09:52.035Z,98461.82
2019-03-04T13:12:23.145Z,98452.23
2019-03-04T13:14:53.990Z,98446.14
2019-03-04T13:17:25.605Z,98447.98
2019-03-04T13:19:56.526Z,98441.87
2019-03-04T13:22:28.318Z,98436.20
2019-03-04T13:24:59.737Z,98441.00
2019-03-04T13:27:31.356Z,98427.92
2019-03-04T13:30:03.007Z,98437.92
2019-03-04T13:32:35.496Z,98432.63
2019-03-04T13:35:09.979Z,98428.25
2019-03-04T13:37:43.848Z,98437.83
2019-03-04T13:40:15.153Z,98436.52
2019-03-04T13:42:52.081Z,98421.64
2019-03-04T13:45:24.240Z,98425.57
2019-03-04T13:47:56.960Z,98425.97
2019-03-04T13:50:30.282Z,98430.77
2019-03-04T13:53:01.924Z,98431.61
2019-03-04T13:55:32.571Z,98427.67
2019-03-04T13:58:03.841Z,98425.05
2019-03-04T14:00:43.960Z,98420.53
2019-03-04T14:03:21.324Z,98416.73
2019-03-04T14:05:53.966Z,98394.98
2019-03-04T14:08:24.706Z,98400.44
2019-03-04T14:10:55.480Z,98397.98
2019-03-04T14:13:26.065Z,98406.16
2019-03-04T14:15:57.988Z,98402.75
2019-03-04T14:18:28.865Z,98388.49
2019-03-04T14:20:59.546Z,98403.62
2019-03-04T14:23:31.885Z,98402.94
2019-03-04T14:26:03.624Z,98408.69
2019-03-04T14:28:35.125Z,98409.20
2019-03-04T14:31:05.704Z,98412.34
2019-03-04T14:33:36.303Z,98417.21
2019-03-04T14:36:07.067Z,98411.61
2019-03-04T14:38:38.066Z,98403.69
2019-03-04T14:41:09.336Z,98405.91
2019-03-04T14:43:43.611Z,98391.91
2019-03-04T14:46:19.227Z,98385.73
2019-03-04T14:48:50.087Z,98393.54
2019-03-04T14:51:20.471Z,98395.72
2019-03-04T14:53:51.107Z,98392.67
2019-03-04T14:56:23.294Z,98402.34
2019-03-04T14:59:09.543Z,98390.53
2019-03-04T15:01:27.602Z,98395.40
2019-03-04T15:03:58.545Z,98398.95
2019-03-04T15:06:29.028Z,98416.11
2019-03-04T15:08:59.906Z,98416.59
2019-03-04T15:11:32.584Z,98425.83
2019-03-04T15:14:03.534Z,98435.02
2019-03-04T15:16:34.466Z,98430.22
2019-03-04T15:19:06.320Z,98442.40
2019-03-04T15:21:37.107Z,98432.34
2019-03-04T15:24:08.265Z,98436.83
2019-03-04T15:26:43.891Z,98447.41
2019-03-04T15:29:12.408Z,98441.00
2019-03-04T15:31:43.147Z,98429.70
2019-03-04T15:34:14.305Z,98450.71
2019-03-04T15:36:47.345Z,98437.69
2019-03-04T15:39:22.831Z,98437.72
2019-03-04T15:41:52.345Z,98445.16
2019-03-04T15:44:23.865Z,98449.56
2019-03-04T15:46:54.677Z,98440.84
2019-03-04T15:49:26.546Z,98453.55
2019-03-04T15:51:57.267Z,98458.84
2019-03-04T15:54:28.004Z,98459.32
2019-03-04T15:57:01.544Z,98475.94
2019-03-04T15:59:33.477Z,98479.48
2019-03-04T16:02:06.146Z,98484.70
2019-03-04T16:04:37.236Z,98455.09
2019-03-04T16:07:09.886Z,98459.48
2019-03-04T16:09:41.025Z,98478.28
2019-03-04T16:12:13.662Z,98466.97
2019-03-04T16:14:50.054Z,98472.66
2019-03-04T16:17:22.555Z,98477.94
2019-03-04T16:19:53.552Z,98479.70
2019-03-04T16:22:24.035Z,98483.63
2019-03-04T16:24:55.932Z,98497.61
2019-03-04T16:27:27.186Z,98480.16
2019-03-04T16:29:57.843Z,98491.06
2019-03-04T16:32:28.895Z,98487.59
2019-03-04T16:35:00.300Z,98489.77
2019-03-04T16:37:32.035Z,98481.48
2019-03-04T16:40:03.090Z,98477.57
2019-03-04T16:42:34.019Z,98471.45
2019-03-04T16:45:07.665Z,98472.30
2019-03-04T16:47:38.082Z,98468.36
2019-03-04T16:50:11.698Z,98475.34
2019-03-04T16:52:42.844Z,98465.74
2019-03-04T16:55:15.306Z,98481.88
2019-03-04T16:57:46.044Z,98481.00
2019-03-04T17:00:21.186Z,98469.22
2019-03-04T17:02:51.827Z,98464.85
2019-03-04T17:05:22.549Z,98458.33
2019-03-04T17:07:53.266Z,98459.20
2019-03-04T17:10:26.030Z,98453.06
2019-03-04T17:12:57.505Z,98460.05
2019-03-04T17:15:28.118Z,98459.61
2019-03-04T17:17:58.717Z,98460.02
2019-03-04T17:20:29.505Z,98457.84
2019-03-04T17:23:00.173Z,98458.71
2019-03-04T17:25:30.882Z,98453.94
2019-03-04T17:28:01.808Z,98466.12
2019-03-04T17:30:32.777Z,98452.17
2019-03-04T17:33:03.835Z,98457.41
2019-03-04T17:35:34.465Z,98460.91
2019-03-04T17:38:04.927Z,98465.29
2019-03-04T17:40:35.569Z,98468.75
2019-03-04T17:43:19.562Z,98460.48
2019-03-04T17:45:56.548Z,98467.03
2019-03-04T17:48:28.056Z,98466.16
2019-03-04T17:50:58.883Z,98463.10
2019-03-04T17:53:30.574Z,98464.85
2019-03-04T17:56:01.476Z,98457.45
2019-03-04T17:58:32.264Z,98467.45
2019-03-04T18:01:02.830Z,98460.91
2019-03-04T18:03:35.239Z,98468.33
2019-03-04T18:06:06.046Z,98468.77
2019-03-04T18:08:36.945Z,98452.20
2019-03-04T18:11:07.605Z,98461.77
2019-03-04T18:13:39.902Z,98458.71
2019-03-04T18:16:10.598Z,98454.35
2019-03-04T18:18:41.562Z,98470.05
2019-03-04T18:21:11.946Z,98473.08
2019-03-04T18:23:42.749Z,98476.10
2019-03-04T18:26:16.625Z,98473.04
2019-03-04T18:28:57.491Z,98483.51
2019-03-04T18:31:27.783Z,98481.73
2019-03-04T18:34:03.677Z,98466.95
2019-03-04T18:36:39.066Z,98458.64
2019-03-04T18:39:11.786Z,98477.37
2019-03-04T18:41:48.905Z,98476.09
2019-03-04T18:44:23.488Z,98460.81
2019-03-04T18:46:55.488Z,98462.58
2019-03-04T18:49:26.706Z,98459.52
2019-03-04T18:51:59.825Z,98468.64
2019-03-04T18:54:30.614Z,98476.91
2019-03-04T18:57:01.577Z,98476.48
2019-03-04T18:59:36.176Z,98492.14
2019-03-04T19:02:10.047Z,98530.43
2019-03-04T19:04:40.686Z,98552.59
2019-03-04T19:07:11.327Z,98551.55
2019-03-04T19:09:42.258Z,98530.51
2019-03-04T19:12:13.966Z,98562.45
2019-03-04T19:14:45.627Z,98585.30
2019-03-04T19:17:16.865Z,98581.21
2019-03-04T19:19:50.103Z,98582.30
2019-03-04T19:22:21.865Z,98596.55
2019-03-04T19:24:54.114Z,98586.41
2019-03-04T19:27:26.670Z,98602.38
2019-03-04T19:29:58.311Z,98599.17
2019-03-04T19:32:29.590Z,98622.56
2019-03-04T19:35:01.087Z,98621.13
2019-03-04T19:37:32.290Z,98639.50
2019-03-04T19:40:06.217Z,98624.98
2019-03-04T19:42:37.215Z,98651.19
2019-03-04T19:45:11.715Z,98673.17
2019-03-04T19:47:42.734Z,98671.33
2019-03-04T19:50:19.051Z,98661.56
2019-03-04T19:52:49.864Z,98668.81
2019-03-04T19:55:20.972Z,98684.66
2019-03-04T19:57:53.854Z,98686.09
2019-03-04T20:00:27.849Z,98669.67
2019-03-04T20:02:59.077Z,98685.78
2019-03-04T20:05:32.409Z,98693.78
2019-03-04T20:08:04.273Z,98704.55
2019-03-04T20:10:36.230Z,98703.11
2019-03-04T20:13:07.224Z,98703.04
2019-03-04T20:15:40.077Z,98717.06
2019-03-04T20:18:10.590Z,98706.47
2019-03-04T20:20:43.083Z,98710.73
2019-03-04T20:23:16.223Z,98726.16
2019-03-04T20:25:51.003Z,98728.53
2019-03-04T20:28:28.104Z,98727.58
2019-03-04T20:31:00.384Z,98727.42
2019-03-04T20:33:31.724Z,98720.34
2019-03-04T20:36:03.125Z,98738.00
2019-03-04T20:38:37.466Z,98729.63
2019-03-04T20:41:09.660Z,98727.83
2019-03-04T20:43:41.071Z,98734.56
2019-03-04T20:46:12.140Z,98730.56
2019-03-04T20:48:43.384Z,98744.77
2019-03-04T20:51:14.780Z,98752.80
2019-03-04T20:53:45.819Z,98758.84
2019-03-04T20:56:16.923Z,98758.31
2019-03-04T20:58:48.065Z,98764.56
2019-03-04T21:01:19.047Z,98770.59
2019-03-04T21:04:04.807Z,98764.05
2019-03-04T21:06:36.127Z,98775.52
2019-03-04T21:09:06.992Z,98767.48
2019-03-04T21:11:37.947Z,98774.05
2019-03-04T21:14:20.367Z,98778.67
2019-03-04T21:16:55.016Z,98781.73
2019-03-04T21:19:26.097Z,98788.97
2019-03-04T21:21:57.573Z,98784.63
2019-03-04T21:24:28.560Z,98794.88
2019-03-04T21:26:59.430Z,98797.59
2019-03-04T21:29:42.582Z,98804.34
2019-03-04T21:32:38.902Z,98815.73
2019-03-04T21:35:29.720Z,98815.97
2019-03-04T21:38:07.036Z,98821.27
2019-03-04T21:40:41.659Z,98829.05
2019-03-04T21:43:16.742Z,98829.02
2019-03-04T21:45:51.137Z,98836.79
2019-03-04T21:48:25.427Z,98840.34
2019-03-04T21:50:59.637Z,98841.03
2019-03-04T21:53:34.020Z,98847.16
2019-03-04T21:56:06.094Z,98852.01
2019-03-04T21:58:38.133Z,98853.57
2019-03-04T22:01:14.417Z,98869.41
2019-03-04T22:03:46.895Z,98864.56
2019-03-04T22:06:17.662Z,98874.99
2019-03-04T22:08:48.592Z,98875.61
2019-03-04T22:11:19.662Z,98876.38
2019-03-04T22:13:50.626Z,98879.30
2019-03-04T22:16:22.339Z,98884.52
2019-03-04T22:18:54.499Z,98891.47
2019-03-04T22:21:25.369Z,98898.98
2019-03-04T22:23:56.504Z,98901.08
2019-03-04T22:26:28.031Z,98902.86
2019-03-04T22:28:58.827Z,98902.86
2019-03-04T22:31:33.347Z,98910.07
2019-03-04T22:34:06.239Z,98917.63
2019-03-04T22:36:37.360Z,98918.72
2019-03-04T22:39:09.505Z,98916.09
2019-03-04T22:41:41.037Z,98918.30
2019-03-04T22:44:13.392Z,98929.91
2019-03-04T22:46:44.662Z,98917.00
2019-03-04T22:49:16.802Z,98924.77
2019-03-04T22:51:47.997Z,98922.67
2019-03-04T22:54:19.390Z,98924.06
2019-03-04T22:56:50.924Z,98930.53
2019-03-04T22:59:22.167Z,98930.44
2019-03-04T23:01:54.886Z,98936.17
2019-03-04T23:04:26.261Z,98930.22
2019-03-04T23:07:00.772Z,98945.20
2019-03-04T23:09:35.110Z,98939.64
2019-03-04T23:12:08.095Z,98937.92
2019-03-04T23:14:38.845Z,98935.72
2019-03-04T23:17:09.587Z,98944.26
2019-03-04T23:19:40.954Z,98935.75
2019-03-04T23:22:12.337Z,98941.80
2019-03-04T23:24:43.405Z,98938.80
2019-03-04T23:27:14.376Z,98935.81
2019-03-04T23:29:45.479Z,98937.43
2019-03-04T23:32:17.030Z,98937.72
2019-03-04T23:34:48.452Z,98938.80
2019-03-04T23:37:19.468Z,98930.86
2019-03-04T23:39:50.657Z,98951.95
2019-03-04T23:42:21.651Z,98940.90
2019-03-04T23:44:52.814Z,98937.47
2019-03-04T23:47:23.676Z,98946.11
2019-03-04T23:49:57.995Z,98944.39
2019-03-04T23:52:29.183Z,98935.33
2019-03-04T23:55:00.421Z,98941.80
2019-03-04T23:57:31.173Z,98943.27
